Time;durP1;ratioP1;P1;durP2;ratioP2;P2;SDS_P1;SDS_P2;PMS_P1;PMS_P2;Temp;Humidity;BMP_temperature;BMP_pressure;BME280_temperature;BME280_humidity;BME280_pressure;Samples;Min_cycle;Max_cycle;Signal;HPM_P1;HPM_P2
2022/05/14 00:01:15;;;;;;;5.03;3.85;;;13.80;99.90;;;;;;5113360;28;20023;-69
2022/05/14 00:03:41;;;;;;;5.95;4.68;;;13.80;99.90;;;;;;5114198;28;20095;-69
2022/05/14 00:06:11;;;;;;;5.80;4.47;;;13.80;99.90;;;;;;5114245;28;20031;-69
2022/05/14 00:08:37;;;;;;;7.07;4.20;;;13.80;99.90;;;;;;5114802;28;20100;-68
2022/05/14 00:13:48;;;;;;;9.25;4.78;;;13.80;99.90;;;;;;5114607;28;20034;-69
2022/05/14 00:16:15;;;;;;;6.65;4.60;;;13.90;99.90;;;;;;5095802;28;20020;-69
2022/05/14 00:18:41;;;;;;;6.63;4.57;;;13.80;99.90;;;;;;5114338;28;20024;-69
2022/05/14 00:21:07;;;;;;;7.70;5.30;;;13.80;99.90;;;;;;5114300;28;20094;-69
2022/05/14 00:23:33;;;;;;;5.60;4.43;;;13.80;99.90;;;;;;5095594;28;20020;-70
2022/05/14 00:25:59;;;;;;;8.25;5.40;;;13.80;99.90;;;;;;5114542;28;20031;-69
2022/05/14 00:28:25;;;;;;;8.70;5.13;;;13.80;99.90;;;;;;5114269;28;20031;-69
2022/05/14 00:30:51;;;;;;;6.68;4.95;;;13.80;99.90;;;;;;5113992;28;20088;-69
2022/05/14 00:33:17;;;;;;;6.32;4.60;;;13.80;99.90;;;;;;5113980;28;20024;-69
2022/05/14 00:35:43;;;;;;;6.28;4.68;;;13.90;99.90;;;;;;5114392;28;20029;-69
2022/05/14 00:38:09;;;;;;;7.85;4.57;;;13.80;99.90;;;;;;5113890;28;20038;-69
2022/05/14 00:40:39;;;;;;;7.70;4.78;;;13.80;99.90;;;;;;5113866;28;20080;-69
2022/05/14 00:43:04;;;;;;;5.20;3.95;;;13.80;99.90;;;;;;5095611;28;20027;-69
2022/05/14 00:45:34;;;;;;;6.95;4.63;;;13.80;99.90;;;;;;5113724;28;20031;-69
2022/05/14 00:48:01;;;;;;;5.88;4.75;;;13.80;99.90;;;;;;5114034;28;20019;-69
2022/05/14 00:50:55;;;;;;;10.07;4.57;;;13.80;99.90;;;;;;5114015;28;20027;-69
2022/05/14 00:53:29;;;;;;;6.25;4.40;;;13.70;99.90;;;;;;5113952;28;20517;-69
2022/05/14 00:55:59;;;;;;;10.93;5.20;;;13.70;99.90;;;;;;5113902;28;20458;-69
2022/05/14 00:58:32;;;;;;;8.10;5.65;;;13.70;99.90;;;;;;5114238;28;20020;-70
2022/05/14 01:00:58;;;;;;;9.20;6.30;;;13.70;99.90;;;;;;5114211;28;20020;-71
2022/05/14 01:03:23;;;;;;;9.07;5.68;;;13.60;99.90;;;;;;5113829;28;20149;-71
2022/05/14 01:05:51;;;;;;;7.00;5.35;;;13.60;99.90;;;;;;5095437;28;20035;-71
2022/05/14 01:08:17;;;;;;;8.77;5.45;;;13.50;99.90;;;;;;5113609;28;20047;-72
2022/05/14 01:10:44;;;;;;;7.85;5.15;;;13.50;99.90;;;;;;5113599;28;20122;-72
2022/05/14 01:13:12;;;;;;;8.93;5.55;;;13.40;99.90;;;;;;5116672;28;20110;-72
2022/05/14 01:15:43;;;;;;;8.40;5.40;;;13.40;99.90;;;;;;5117392;28;20019;-71
2022/05/14 01:18:10;;;;;;;8.75;4.72;;;13.40;99.90;;;;;;5117843;28;20016;-70
2022/05/14 01:20:36;;;;;;;6.97;4.90;;;13.40;99.90;;;;;;5117451;28;20023;-70
2022/05/14 01:23:23;;;;;;;7.07;5.25;;;13.40;99.90;;;;;;5117420;28;20016;-70
2022/05/14 01:28:45;;;;;;;9.00;5.80;;;13.30;99.90;;;;;;5117610;28;20054;-70
2022/05/14 01:31:10;;;;;;;9.25;5.75;;;13.30;99.90;;;;;;5117076;28;20503;-70
2022/05/14 01:33:36;;;;;;;7.80;5.43;;;13.30;99.90;;;;;;5117104;28;20024;-70
2022/05/14 01:36:06;;;;;;;7.85;5.60;;;13.40;99.90;;;;;;5117666;28;20030;-70
2022/05/14 01:38:31;;;;;;;7.47;5.10;;;13.30;99.90;;;;;;5117363;28;20026;-70
2022/05/14 01:40:57;;;;;;;6.40;5.22;;;13.40;99.90;;;;;;5117006;28;20011;-70
2022/05/14 01:43:23;;;;;;;8.68;5.80;;;13.40;99.90;;;;;;5116927;28;20471;-70
2022/05/14 01:45:48;;;;;;;8.65;5.88;;;13.50;99.90;;;;;;5116952;28;20483;-70
2022/05/14 01:48:14;;;;;;;7.93;5.38;;;13.50;99.90;;;;;;5116873;28;20081;-70
2022/05/14 01:50:41;;;;;;;6.60;4.90;;;13.50;99.90;;;;;;5117136;28;20419;-70
2022/05/14 01:53:08;;;;;;;7.32;5.28;;;13.50;99.90;;;;;;5117082;28;20020;-70
2022/05/14 01:55:34;;;;;;;7.15;5.10;;;13.50;99.90;;;;;;5116574;28;20122;-70
2022/05/14 01:58:00;;;;;;;7.93;5.00;;;13.50;99.90;;;;;;5116739;28;20023;-69
2022/05/14 02:00:26;;;;;;;5.45;4.35;;;13.50;99.90;;;;;;5116661;28;20024;-70
2022/05/14 02:02:53;;;;;;;6.10;4.55;;;13.40;99.90;;;;;;5116601;28;20024;-70
2022/05/14 02:05:19;;;;;;;6.57;4.80;;;13.40;99.90;;;;;;5116510;28;20076;-70
2022/05/14 02:07:45;;;;;;;5.80;4.40;;;13.40;99.90;;;;;;5116538;28;20027;-70
2022/05/14 02:10:11;;;;;;;6.63;4.53;;;13.40;99.90;;;;;;5098103;28;20489;-70
2022/05/14 02:12:37;;;;;;;6.03;4.97;;;13.40;99.90;;;;;;5116697;28;20133;-70
2022/05/14 02:15:04;;;;;;;5.93;4.65;;;13.40;99.90;;;;;;5116809;28;20027;-70
2022/05/14 02:17:30;;;;;;;6.93;5.03;;;13.30;99.90;;;;;;5116842;28;20443;-70
2022/05/14 02:19:56;;;;;;;9.52;5.45;;;13.40;99.90;;;;;;5116849;28;20107;-70
2022/05/14 02:22:22;;;;;;;9.68;5.65;;;13.40;99.90;;;;;;5116281;28;20016;-69
2022/05/14 02:24:48;;;;;;;6.47;4.88;;;13.40;99.90;;;;;;5115003;28;20036;-70
2022/05/14 02:27:13;;;;;;;6.30;4.68;;;13.40;99.90;;;;;;5116176;28;20489;-70
2022/05/14 02:29:51;;;;;;;6.93;5.60;;;13.40;99.90;;;;;;5116091;28;20034;-70
2022/05/14 02:32:18;;;;;;;7.07;4.90;;;13.50;99.90;;;;;;5116132;28;20024;-69
2022/05/14 02:34:44;;;;;;;5.85;4.25;;;13.50;99.90;;;;;;5116430;28;20089;-69
2022/05/14 02:37:09;;;;;;;6.40;4.22;;;13.40;99.90;;;;;;5097749;28;20050;-70
2022/05/14 02:39:35;;;;;;;8.73;4.25;;;13.50;99.90;;;;;;5116175;28;20019;-70
2022/05/14 02:42:01;;;;;;;7.43;4.22;;;13.50;99.90;;;;;;5115879;28;20103;-70
2022/05/14 02:44:26;;;;;;;5.40;3.97;;;13.50;99.90;;;;;;5115753;28;20498;-70
2022/05/14 02:46:52;;;;;;;5.28;4.22;;;13.50;99.90;;;;;;5115731;28;20024;-70
2022/05/14 02:49:18;;;;;;;6.85;4.25;;;13.50;99.90;;;;;;5115940;28;20035;-70
2022/05/14 02:51:43;;;;;;;7.65;4.55;;;13.50;99.90;;;;;;5115905;28;20024;-69
2022/05/14 02:54:09;;;;;;;5.65;4.07;;;13.60;99.90;;;;;;5115747;28;20068;-70
2022/05/14 02:56:34;;;;;;;5.90;4.25;;;13.60;99.90;;;;;;5115831;28;20099;-70
2022/05/14 02:59:09;;;;;;;6.45;4.32;;;13.60;99.90;;;;;;5115762;28;20110;-70
2022/05/14 03:01:37;;;;;;;7.50;5.20;;;13.50;99.90;;;;;;5115768;28;20073;-69
2022/05/14 03:04:04;;;;;;;8.35;5.25;;;13.50;99.90;;;;;;5115246;28;20024;-69
2022/05/14 03:06:30;;;;;;;6.85;5.18;;;13.50;99.90;;;;;;5115382;28;20020;-69
2022/05/14 03:08:56;;;;;;;9.05;5.53;;;13.40;99.90;;;;;;5115850;28;20027;-70
2022/05/14 03:11:22;;;;;;;9.25;6.00;;;13.40;99.90;;;;;;5115243;28;20058;-71
2022/05/14 03:13:51;;;;;;;9.02;5.82;;;13.30;99.90;;;;;;5115152;28;20027;-72
2022/05/14 03:16:20;;;;;;;7.97;5.97;;;13.30;99.90;;;;;;5096840;28;20127;-72
2022/05/14 03:18:46;;;;;;;9.27;5.47;;;13.20;99.90;;;;;;5115739;28;20012;-72
2022/05/14 03:21:12;;;;;;;7.10;5.15;;;13.20;99.90;;;;;;5115392;28;20034;-72
2022/05/14 03:23:37;;;;;;;7.88;5.82;;;13.20;99.90;;;;;;5114822;28;20015;-72
2022/05/14 03:26:03;;;;;;;8.70;6.28;;;13.30;99.90;;;;;;5096810;28;20059;-71
2022/05/14 03:28:29;;;;;;;9.13;6.65;;;13.30;99.90;;;;;;5114914;28;20024;-71
2022/05/14 03:30:56;;;;;;;8.50;5.70;;;13.30;99.90;;;;;;5114914;28;20028;-71
2022/05/14 03:33:23;;;;;;;12.07;5.78;;;13.30;99.90;;;;;;5114758;28;20024;-71
2022/05/14 03:35:49;;;;;;;7.47;5.40;;;13.30;99.90;;;;;;5114489;28;20106;-71
2022/05/14 03:38:14;;;;;;;10.70;7.10;;;13.30;99.90;;;;;;5115049;28;20048;-70
2022/05/14 03:40:40;;;;;;;10.82;6.93;;;13.30;99.90;;;;;;5115004;28;20148;-69
2022/05/14 03:43:06;;;;;;;7.35;5.82;;;13.30;99.90;;;;;;5115223;28;20030;-70
2022/05/14 03:45:31;;;;;;;9.30;5.97;;;13.40;99.90;;;;;;5115579;28;20023;-70
2022/05/14 03:47:57;;;;;;;7.93;6.40;;;13.30;99.90;;;;;;5114800;28;20024;-70
2022/05/14 03:50:23;;;;;;;10.50;6.72;;;13.20;99.90;;;;;;5114486;28;20028;-70
2022/05/14 03:52:49;;;;;;;8.43;6.50;;;13.10;99.90;;;;;;5114787;28;20410;-70
2022/05/14 03:55:14;;;;;;;8.95;6.22;;;13.10;99.90;;;;;;5114843;28;20035;-70
2022/05/14 03:57:40;;;;;;;8.82;6.35;;;13.10;99.90;;;;;;5114385;28;20055;-70
2022/05/14 04:00:07;;;;;;;8.95;5.80;;;13.10;99.90;;;;;;5096144;28;20028;-69
2022/05/14 04:02:34;;;;;;;10.13;6.30;;;13.10;99.90;;;;;;5114278;28;20028;-70
2022/05/14 04:05:00;;;;;;;7.20;5.35;;;13.00;99.90;;;;;;5095949;28;20066;-70
2022/05/14 04:07:25;;;;;;;8.02;5.40;;;13.00;99.90;;;;;;5114557;28;20054;-69
2022/05/14 04:09:51;;;;;;;6.45;5.32;;;13.10;99.90;;;;;;5114167;28;20023;-70
2022/05/14 04:12:17;;;;;;;7.60;5.70;;;13.10;99.90;;;;;;5114252;28;20031;-70
2022/05/14 04:14:43;;;;;;;7.35;5.97;;;13.00;99.90;;;;;;5114052;28;20120;-70
2022/05/14 04:17:09;;;;;;;7.72;6.20;;;13.10;99.90;;;;;;5114145;28;20043;-70
2022/05/14 04:19:35;;;;;;;9.32;6.28;;;13.00;99.90;;;;;;5114679;28;20031;-70
2022/05/14 04:22:00;;;;;;;8.27;6.30;;;13.00;99.90;;;;;;5114077;28;20038;-69
2022/05/14 04:24:27;;;;;;;7.00;5.55;;;13.00;99.90;;;;;;5095639;28;20061;-70
2022/05/14 04:26:53;;;;;;;8.35;6.18;;;13.00;99.90;;;;;;5095731;28;20031;-70
2022/05/14 04:29:19;;;;;;;7.20;5.55;;;13.10;99.90;;;;;;5114536;28;20441;-70
2022/05/14 04:31:45;;;;;;;8.20;5.03;;;13.10;99.90;;;;;;5113931;28;20059;-70
2022/05/14 04:34:11;;;;;;;7.90;5.18;;;13.10;99.90;;;;;;5095535;28;20039;-69
2022/05/14 04:36:37;;;;;;;6.93;5.22;;;13.20;99.90;;;;;;5113888;28;20498;-69
2022/05/14 04:39:03;;;;;;;6.63;4.93;;;13.20;99.90;;;;;;5113889;28;20027;-70
2022/05/14 04:41:30;;;;;;;6.70;4.57;;;13.30;99.90;;;;;;5114087;28;20078;-69
2022/05/14 04:44:00;;;;;;;5.68;4.68;;;13.30;99.90;;;;;;5113995;28;20016;-69
2022/05/14 04:46:26;;;;;;;6.47;5.03;;;13.30;99.90;;;;;;5113828;28;20073;-69
2022/05/14 04:48:53;;;;;;;7.65;5.45;;;13.40;99.90;;;;;;5118075;28;20394;-69
2022/05/14 04:51:19;;;;;;;7.55;5.32;;;13.40;99.90;;;;;;5118640;28;20539;-69
2022/05/14 04:53:45;;;;;;;7.95;5.70;;;13.50;99.90;;;;;;5117907;28;20150;-69
2022/05/14 04:56:11;;;;;;;6.97;5.13;;;13.50;99.90;;;;;;5117845;28;20057;-70
2022/05/14 04:58:36;;;;;;;7.40;5.65;;;13.50;99.90;;;;;;5118182;28;20471;-70
2022/05/14 05:01:02;;;;;;;7.18;5.60;;;13.50;99.90;;;;;;5099457;28;20023;-70
2022/05/14 05:03:28;;;;;;;8.30;5.65;;;13.50;99.90;;;;;;5099481;28;20475;-70
2022/05/14 05:05:59;;;;;;;9.40;5.57;;;13.50;99.90;;;;;;5118298;28;20111;-70
2022/05/14 05:08:28;;;;;;;8.75;5.03;;;13.50;99.90;;;;;;5118298;28;20568;-70
2022/05/14 05:10:55;;;;;;;6.95;5.32;;;13.50;99.90;;;;;;5117586;28;20032;-70
2022/05/14 05:13:27;;;;;;;7.43;4.70;;;13.50;99.90;;;;;;5118113;28;20031;-70
2022/05/14 05:15:53;;;;;;;6.63;5.30;;;13.50;99.90;;;;;;5117483;28;20034;-70
2022/05/14 05:18:19;;;;;;;8.32;5.97;;;13.60;99.90;;;;;;5117741;28;20016;-69
2022/05/14 05:20:49;;;;;;;9.57;5.97;;;13.60;99.90;;;;;;5117483;28;20020;-70
2022/05/14 05:23:18;;;;;;;7.40;5.65;;;13.70;99.90;;;;;;5117724;28;20035;-70
2022/05/14 05:25:45;;;;;;;6.45;5.05;;;13.70;99.90;;;;;;5117116;28;20042;-70
2022/05/14 05:28:12;;;;;;;8.75;5.40;;;13.80;99.90;;;;;;5099813;28;20040;-70
2022/05/14 05:30:37;;;;;;;7.32;4.88;;;13.80;99.90;;;;;;5117234;28;20098;-70
2022/05/14 05:33:03;;;;;;;8.10;5.28;;;13.80;99.90;;;;;;5098953;28;20110;-70
2022/05/14 05:35:29;;;;;;;6.90;5.43;;;13.80;99.90;;;;;;5117370;28;20019;-69
2022/05/14 05:37:55;;;;;;;7.72;4.47;;;13.80;99.90;;;;;;5117094;28;20387;-69
2022/05/14 05:40:21;;;;;;;6.03;4.32;;;13.90;99.90;;;;;;5098878;28;20483;-69
2022/05/14 05:42:47;;;;;;;5.82;4.60;;;13.90;99.90;;;;;;5117337;28;20027;-69
2022/05/14 05:45:15;;;;;;;6.97;5.03;;;13.90;99.90;;;;;;5116907;28;20023;-69
2022/05/14 05:47:41;;;;;;;7.38;4.38;;;13.90;99.90;;;;;;5116956;28;20030;-69
2022/05/14 05:50:08;;;;;;;8.57;5.38;;;13.90;99.90;;;;;;5117231;28;20479;-69
2022/05/14 05:52:33;;;;;;;6.78;4.32;;;13.90;99.90;;;;;;5098878;28;20030;-70
2022/05/14 05:57:45;;;;;;;6.40;4.80;;;13.90;99.90;;;;;;5116678;28;20074;-69
2022/05/14 06:00:18;;;;;;;7.07;4.90;;;13.90;99.90;;;;;;5116949;28;19915;-70
2022/05/14 06:02:46;;;;;;;8.77;5.95;;;14.10;99.90;;;;;;5116671;28;20544;-70
2022/05/14 06:05:12;;;;;;;8.47;4.97;;;14.10;99.90;;;;;;5098240;28;20442;-70
2022/05/14 06:07:38;;;;;;;;;;;14.20;99.90;;;;;;5115005;28;20507;-70
2022/05/14 06:10:04;;;;;;;;;;;14.20;99.90;;;;;;5115449;28;19911;-69
2022/05/14 06:12:30;;;;;;;;;;;14.20;99.90;;;;;;5115108;28;20423;-70
2022/05/14 06:14:55;;;;;;;;;;;14.20;99.90;;;;;;5114757;28;20010;-70
2022/05/14 06:17:21;;;;;;;;;;;14.20;99.90;;;;;;5114610;28;19903;-69
2022/05/14 06:19:47;;;;;;;;;;;14.20;99.90;;;;;;5115645;28;19915;-69
2022/05/14 06:22:12;;;;;;;;;;;14.20;99.90;;;;;;5115222;28;20036;-70
2022/05/14 06:24:38;;;;;;;;;;;14.30;99.90;;;;;;5114335;28;19918;-70
2022/05/14 06:27:04;;;;;;;;;;;14.30;99.90;;;;;;5115605;28;19908;-70
2022/05/14 06:29:31;;;;;;;;;;;14.30;99.90;;;;;;5115751;28;20499;-70
2022/05/14 06:31:57;;;;;;;;;;;14.30;99.90;;;;;;5115554;28;19915;-70
2022/05/14 06:34:23;;;;;;;6.00;4.85;;;14.40;99.90;;;;;;5116107;28;20057;-70
2022/05/14 06:36:50;;;;;;;5.40;4.00;;;14.50;99.90;;;;;;5116332;28;20027;-69
2022/05/14 06:39:15;;;;;;;5.40;3.88;;;14.70;99.90;;;;;;5115952;28;20020;-70
2022/05/14 06:41:41;;;;;;;7.35;4.47;;;14.70;99.90;;;;;;5116191;28;20456;-70
2022/05/14 06:44:07;;;;;;;5.95;3.95;;;14.80;99.90;;;;;;5115765;28;20027;-70
2022/05/14 06:46:34;;;;;;;7.05;4.18;;;14.80;99.90;;;;;;5116057;28;20027;-70
2022/05/14 06:49:00;;;;;;;6.38;3.88;;;14.80;99.90;;;;;;5116018;28;20069;-70
2022/05/14 06:51:28;;;;;;;6.07;4.25;;;14.80;99.90;;;;;;5115752;28;20023;-69
2022/05/14 06:53:58;;;;;;;6.70;4.60;;;14.90;99.90;;;;;;5115585;28;20070;-69
2022/05/14 06:56:26;;;;;;;9.43;4.80;;;15.00;99.90;;;;;;5115494;28;20074;-69
2022/05/14 06:58:52;;;;;;;9.95;5.10;;;15.10;99.90;;;;;;5116055;28;20019;-69
2022/05/14 07:01:19;;;;;;;11.77;5.25;;;15.20;99.90;;;;;;5115484;28;20024;-69
2022/05/14 07:06:39;;;;;;;5.78;4.53;;;15.50;99.90;;;;;;5115947;28;20050;-69
2022/05/14 07:09:23;;;;;;;6.63;4.80;;;15.60;99.90;;;;;;5115490;28;20048;-69
2022/05/14 07:11:51;;;;;;;8.77;4.30;;;15.70;99.90;;;;;;5115210;28;20068;-68
2022/05/14 07:14:18;;;;;;;8.93;4.90;;;15.80;99.90;;;;;;5115285;28;20050;-68
2022/05/14 07:16:44;;;;;;;6.40;4.28;;;15.90;99.90;;;;;;5115453;28;20051;-68
2022/05/14 07:19:11;;;;;;;6.88;4.03;;;16.00;99.90;;;;;;5115674;28;20170;-68
2022/05/14 07:21:39;;;;;;;6.72;4.38;;;16.10;99.90;;;;;;5115084;28;20019;-68
2022/05/14 07:24:07;;;;;;;6.00;4.28;;;16.10;99.90;;;;;;5114798;28;20043;-68
2022/05/14 07:26:35;;;;;;;7.22;4.40;;;16.20;99.90;;;;;;5115341;28;20024;-68
2022/05/14 07:29:06;;;;;;;6.57;4.40;;;16.30;99.90;;;;;;5096769;28;20119;-68
2022/05/14 07:31:31;;;;;;;7.55;4.22;;;16.40;99.90;;;;;;5114985;28;20476;-68
2022/05/14 07:33:58;;;;;;;5.72;3.83;;;16.50;99.90;;;;;;5114809;28;20110;-68
2022/05/14 07:36:25;;;;;;;5.00;4.15;;;16.60;99.90;;;;;;5114831;28;20047;-68
2022/05/14 07:38:52;;;;;;;8.63;4.70;;;16.70;99.90;;;;;;5115110;28;20027;-68
2022/05/14 07:41:18;;;;;;;6.70;5.00;;;16.60;99.90;;;;;;5114725;28;20468;-68
2022/05/14 07:43:49;;;;;;;6.10;3.97;;;16.60;99.90;;;;;;5114649;28;20045;-68
2022/05/14 07:46:24;;;;;;;6.35;3.35;;;16.60;99.90;;;;;;5114976;28;20016;-68
2022/05/14 07:48:51;;;;;;;5.68;3.47;;;16.60;99.90;;;;;;5114948;28;20459;-68
2022/05/14 07:51:17;;;;;;;6.45;3.92;;;16.70;99.90;;;;;;5114861;28;20076;-68
2022/05/14 07:53:43;;;;;;;4.30;3.20;;;16.70;99.90;;;;;;5096490;28;20027;-69
2022/05/14 07:56:09;;;;;;;6.30;4.00;;;16.70;99.90;;;;;;5114759;28;20481;-68
2022/05/14 07:58:36;;;;;;;4.82;3.58;;;16.80;99.90;;;;;;5114748;28;20020;-68
2022/05/14 08:01:02;;;;;;;9.93;4.10;;;16.90;99.90;;;;;;5114391;28;20030;-68
2022/05/14 08:03:28;;;;;;;7.20;3.95;;;16.90;99.90;;;;;;5114274;28;20024;-68
2022/05/14 08:05:54;;;;;;;8.60;4.03;;;17.00;99.90;;;;;;5114318;28;20107;-68
2022/05/14 08:08:21;;;;;;;6.43;3.92;;;17.20;99.90;;;;;;5114238;28;20035;-68
2022/05/14 08:10:49;;;;;;;8.23;4.60;;;17.30;99.90;;;;;;5095959;28;20031;-68
2022/05/14 08:13:16;;;;;;;6.00;3.60;;;17.50;99.90;;;;;;5114494;28;20475;-68
2022/05/14 08:15:43;;;;;;;5.80;3.20;;;17.50;99.90;;;;;;5113992;28;20111;-69
2022/05/14 08:18:09;;;;;;;4.25;2.95;;;17.60;99.90;;;;;;5114071;28;20024;-68
2022/05/14 08:20:36;;;;;;;5.32;3.35;;;17.80;99.90;;;;;;5095810;28;20015;-68
2022/05/14 08:25:48;;;;;;;4.93;3.10;;;18.10;99.90;;;;;;5114340;28;20519;-68
2022/05/14 08:28:14;;;;;;;6.10;3.60;;;18.30;99.90;;;;;;5114278;28;20032;-68
2022/05/14 08:30:39;;;;;;;6.30;3.97;;;18.40;99.90;;;;;;5113949;28;20048;-68
2022/05/14 08:33:07;;;;;;;4.65;3.10;;;18.60;99.90;;;;;;5113929;28;20027;-69
2022/05/14 08:35:34;;;;;;;5.57;2.95;;;18.80;99.90;;;;;;5113722;28;20023;-69
2022/05/14 08:38:00;;;;;;;9.25;2.72;;;18.80;99.90;;;;;;5114184;28;20523;-69
2022/05/14 08:40:33;;;;;;;6.85;2.80;;;18.80;99.90;;;;;;5114112;28;20024;-69
2022/05/14 08:43:01;;;;;;;5.03;2.72;;;18.90;99.90;;;;;;5095672;28;20028;-69
2022/05/14 08:45:30;;;;;;;4.68;3.00;;;19.10;99.90;;;;;;5113803;28;20024;-69
2022/05/14 08:47:59;;;;;;;5.80;3.00;;;19.10;99.90;;;;;;5113865;28;20030;-68
2022/05/14 08:50:34;;;;;;;6.53;3.00;;;19.10;99.90;;;;;;5114088;28;20027;-69
2022/05/14 08:53:03;;;;;;;4.82;2.85;;;19.20;99.90;;;;;;5113784;28;20073;-69
2022/05/14 08:55:39;;;;;;;7.07;3.42;;;19.30;99.90;;;;;;5113636;28;20019;-69
2022/05/14 08:58:36;;;;;;;4.10;2.40;;;19.20;99.90;;;;;;5114268;28;20016;-69
2022/05/14 09:01:06;;;;;;;4.57;2.55;;;19.10;99.90;;;;;;5113783;28;20054;-69
2022/05/14 09:03:32;;;;;;;5.07;3.13;;;19.30;99.90;;;;;;5113650;28;20024;-68
2022/05/14 09:05:59;;;;;;;5.82;2.55;;;19.50;99.90;;;;;;5113658;28;20395;-69
2022/05/14 09:08:26;;;;;;;4.25;2.38;;;19.60;99.90;;;;;;5113900;28;20099;-69
2022/05/14 09:11:06;;;;;;;4.18;2.20;;;19.80;99.90;;;;;;5113830;28;20032;-68
2022/05/14 09:13:43;;;;;;;2.77;1.93;;;19.90;99.90;;;;;;5095339;28;20368;-69
2022/05/14 09:16:21;;;;;;;5.25;2.17;;;19.80;99.90;;;;;;5113525;28;20024;-69
2022/05/14 09:18:48;;;;;;;5.65;2.70;;;19.80;99.90;;;;;;5113794;28;20023;-68
2022/05/14 09:21:30;;;;;;;5.45;2.90;;;19.90;99.90;;;;;;5095195;28;20407;-68
2022/05/14 09:23:58;;;;;;;4.43;2.60;;;19.90;99.90;;;;;;5113750;28;20470;-69
2022/05/14 09:26:52;;;;;;;5.55;2.40;;;20.10;99.90;;;;;;5113449;28;20026;-68
2022/05/14 09:29:21;;;;;;;4.30;2.42;;;20.20;99.90;;;;;;5024246;28;20120;-68
2022/05/14 09:31:53;;;;;;;4.60;2.38;;;20.30;99.90;;;;;;5095189;28;20027;-68
2022/05/14 09:34:20;;;;;;;3.72;2.10;;;20.40;96.60;;;;;;5116501;28;20034;-68
2022/05/14 09:36:49;;;;;;;3.70;2.20;;;20.40;96.20;;;;;;5117208;28;20030;-68
2022/05/14 09:39:23;;;;;;;4.97;2.25;;;20.30;96.40;;;;;;5117186;28;20494;-69
2022/05/14 09:41:56;;;;;;;3.15;2.30;;;20.20;97.10;;;;;;5117102;28;20031;-69
2022/05/14 09:44:26;;;;;;;4.05;2.42;;;20.20;96.70;;;;;;5116952;28;20051;-69
2022/05/14 09:47:04;;;;;;;6.53;2.40;;;20.20;97.30;;;;;;5098827;28;20148;-69
2022/05/14 09:49:29;;;;;;;5.45;2.85;;;20.20;96.80;;;;;;5116980;28;20412;-69
2022/05/14 09:52:02;;;;;;;3.85;2.55;;;20.20;95.70;;;;;;5117232;28;20480;-69
2022/05/14 09:54:43;;;;;;;5.43;2.47;;;20.30;95.70;;;;;;5116935;28;20024;-69
2022/05/14 09:57:39;;;;;;;3.80;2.65;;;20.40;94.20;;;;;;5117363;28;20020;-68
2022/05/14 10:00:16;;;;;;;5.45;2.65;;;20.60;94.20;;;;;;5116901;28;20383;-69
2022/05/14 10:02:57;;;;;;;4.35;2.40;;;20.80;94.60;;;;;;5117008;28;20029;-69
2022/05/14 10:05:51;;;;;;;4.45;2.40;;;21.00;95.10;;;;;;5116703;28;20048;-69
2022/05/14 10:08:25;;;;;;;4.53;2.60;;;21.20;94.20;;;;;;5116973;28;20023;-68
2022/05/14 10:11:15;;;;;;;4.35;2.55;;;21.30;95.10;;;;;;5116860;28;20031;-69
2022/05/14 10:14:13;;;;;;;5.10;2.97;;;21.40;94.80;;;;;;5104351;28;20070;-69
2022/05/14 10:16:59;;;;;;;5.38;2.63;;;21.40;94.50;;;;;;5114908;28;20501;-69
2022/05/14 10:20:08;;;;;;;7.07;2.50;;;21.30;93.70;;;;;;5115457;28;20023;-70
2022/05/14 10:28:58;;;;;;;3.88;2.78;;;21.40;94.40;;;;;;5116561;28;20026;-68
2022/05/14 10:31:43;;;;;;;4.43;2.60;;;21.50;93.90;;;;;;5116470;28;20031;-68
2022/05/14 10:34:16;;;;;;;3.97;2.40;;;21.60;94.90;;;;;;5116048;28;20095;-68
2022/05/14 10:36:51;;;;;;;4.25;2.67;;;21.70;93.70;;;;;;5116038;28;20027;-69
2022/05/14 10:39:58;;;;;;;3.90;2.58;;;21.80;93.00;;;;;;5116307;28;20485;-68
2022/05/14 10:42:38;;;;;;;5.28;2.83;;;21.90;92.20;;;;;;5115938;28;20051;-68
2022/05/14 10:45:26;;;;;;;5.00;2.70;;;21.90;91.60;;;;;;5115204;28;20027;-68
2022/05/14 10:48:24;;;;;;;6.15;2.50;;;21.90;92.20;;;;;;5116182;28;20027;-68
2022/05/14 10:50:50;;;;;;;4.90;2.28;;;21.90;92.10;;;;;;5116152;28;20471;-68
2022/05/14 10:53:16;;;;;;;5.72;2.83;;;22.10;91.70;;;;;;5115706;28;20110;-68
2022/05/14 10:56:14;;;;;;;4.90;3.00;;;22.20;92.10;;;;;;5097166;28;20100;-68
2022/05/14 10:58:51;;;;;;;4.50;2.75;;;22.30;91.10;;;;;;5115557;28;20026;-68
2022/05/14 11:01:48;;;;;;;5.40;2.90;;;22.40;92.20;;;;;;5115618;28;20128;-68
2022/05/14 11:04:22;;;;;;;5.82;2.60;;;22.50;90.70;;;;;;5115719;28;20022;-68
2022/05/14 11:06:50;;;;;;;4.10;2.40;;;22.40;90.50;;;;;;5115775;28;20471;-68
2022/05/14 11:09:22;;;;;;;6.10;2.80;;;22.50;90.20;;;;;;5115630;28;20110;-68
2022/05/14 11:11:55;;;;;;;4.47;2.65;;;22.60;88.30;;;;;;5115628;28;20489;-68
2022/05/14 11:14:21;;;;;;;5.55;2.85;;;22.80;90.20;;;;;;5096941;28;20020;-68
2022/05/14 11:16:52;;;;;;;5.40;2.70;;;22.80;90.10;;;;;;5115207;28;20023;-68
2022/05/14 11:19:30;;;;;;;3.85;2.50;;;22.80;87.40;;;;;;5115284;28;20020;-68
2022/05/14 11:21:57;;;;;;;6.18;2.72;;;22.80;87.90;;;;;;5115184;28;20019;-68
2022/05/14 11:24:37;;;;;;;4.75;2.75;;;22.80;87.60;;;;;;5115091;28;20532;-68
2022/05/14 11:27:03;;;;;;;6.50;2.88;;;22.90;87.90;;;;;;5115097;28;20034;-68
2022/05/14 11:29:34;;;;;;;5.03;2.78;;;23.20;86.60;;;;;;5116078;28;20016;-68
2022/05/14 11:32:11;;;;;;;4.22;2.53;;;23.40;85.90;;;;;;5115214;28;20060;-68
2022/05/14 11:34:37;;;;;;;7.32;2.92;;;23.50;84.40;;;;;;5115158;28;20094;-68
2022/05/14 11:37:06;;;;;;;6.40;2.67;;;23.50;82.10;;;;;;5115175;28;20068;-68
2022/05/14 11:39:38;;;;;;;4.28;2.53;;;23.50;80.30;;;;;;5115346;28;20031;-68
2022/05/14 11:42:28;;;;;;;5.43;2.75;;;23.50;81.50;;;;;;5115193;28;20145;-68
2022/05/14 11:45:03;;;;;;;4.22;2.63;;;23.50;80.30;;;;;;5105005;28;20143;-68
2022/05/14 11:47:32;;;;;;;6.00;2.83;;;23.60;84.10;;;;;;5114616;28;20053;-68
2022/05/14 11:50:00;;;;;;;6.90;2.50;;;23.80;82.50;;;;;;5096582;28;20024;-69
2022/05/14 11:52:50;;;;;;;5.20;2.83;;;23.90;83.90;;;;;;5097240;28;20114;-68
2022/05/14 11:55:34;;;;;;;5.88;2.65;;;23.90;76.70;;;;;;5096173;28;20072;-68
2022/05/14 11:58:09;;;;;;;7.80;2.95;;;23.50;78.20;;;;;;5096313;28;20019;-68
2022/05/14 12:00:35;;;;;;;4.85;2.78;;;23.40;81.00;;;;;;5114772;28;20474;-68
2022/05/14 12:03:18;;;;;;;4.68;2.72;;;23.50;80.30;;;;;;5114354;28;20059;-68
2022/05/14 12:06:14;;;;;;;6.75;2.47;;;23.40;81.60;;;;;;5114703;28;20020;-69
2022/05/14 12:08:54;;;;;;;6.75;3.30;;;23.30;81.00;;;;;;5114619;28;20459;-68
2022/05/14 12:11:28;;;;;;;5.90;2.97;;;23.10;77.90;;;;;;5114371;28;20073;-68
2022/05/14 12:14:04;;;;;;;6.88;3.00;;;23.00;79.00;;;;;;5114997;28;20396;-68
2022/05/14 12:16:41;;;;;;;4.82;2.80;;;23.00;80.10;;;;;;5095943;28;20019;-68
2022/05/14 12:19:31;;;;;;;7.47;3.20;;;23.20;82.60;;;;;;5114463;28;20016;-68
2022/05/14 12:22:22;;;;;;;6.07;2.97;;;23.30;78.50;;;;;;5114498;28;20503;-67
2022/05/14 12:25:08;;;;;;;4.80;2.95;;;23.30;78.60;;;;;;5103828;28;20395;-68
2022/05/14 12:27:43;;;;;;;7.32;3.45;;;23.40;79.90;;;;;;5095859;28;20023;-68
2022/05/14 12:33:19;;;;;;;10.52;3.70;;;23.40;77.00;;;;;;5114544;28;20038;-68
2022/05/14 12:35:57;;;;;;;5.53;3.38;;;23.20;76.20;;;;;;5095729;28;20395;-69
2022/05/14 12:38:36;;;;;;;6.53;3.22;;;23.00;77.50;;;;;;5113134;28;20040;-68
2022/05/14 12:41:05;;;;;;;6.38;3.10;;;22.60;76.90;;;;;;5109959;28;20429;-69
2022/05/14 12:43:31;;;;;;;7.22;3.90;;;22.40;78.80;;;;;;5094881;28;20035;-68
2022/05/14 12:46:08;;;;;;;5.80;3.60;;;22.30;79.30;;;;;;5102568;28;20053;-68
2022/05/14 12:48:46;;;;;;;6.63;3.60;;;22.00;80.00;;;;;;5111368;28;20024;-68
2022/05/14 12:51:19;;;;;;;5.38;3.40;;;21.70;79.50;;;;;;5112062;28;20035;-67
2022/05/14 12:53:45;;;;;;;6.43;3.25;;;21.50;81.30;;;;;;5112113;28;20069;-67
2022/05/14 12:56:11;;;;;;;5.85;3.63;;;21.40;83.00;;;;;;5111866;28;20464;-68
2022/05/14 12:58:39;;;;;;;8.25;3.67;;;21.50;80.60;;;;;;5112165;28;20024;-69
2022/05/14 13:01:07;;;;;;;25.27;8.60;;;21.40;81.80;;;;;;5113598;28;20024;-68
2022/05/14 13:03:39;;;;;;;9.05;3.40;;;21.50;83.00;;;;;;5113593;28;20047;-67
2022/05/14 13:06:11;;;;;;;6.38;3.63;;;21.60;83.00;;;;;;5113894;28;20020;-68
2022/05/14 13:08:53;;;;;;;8.02;3.67;;;21.50;82.40;;;;;;5115716;28;20506;-67
2022/05/14 13:11:23;;;;;;;7.00;3.25;;;21.40;81.10;;;;;;5117662;28;20030;-68
2022/05/14 13:13:52;;;;;;;7.13;3.60;;;21.20;83.20;;;;;;5117550;28;20523;-68
2022/05/14 13:16:25;;;;;;;7.22;3.53;;;21.20;83.60;;;;;;5118070;28;20048;-67
2022/05/14 13:18:58;;;;;;;7.30;3.60;;;21.10;84.60;;;;;;5117871;28;20024;-68
2022/05/14 13:21:33;;;;;;;7.82;3.45;;;21.20;82.60;;;;;;5099253;28;20463;-68
2022/05/14 13:24:18;;;;;;;7.10;3.28;;;21.40;82.20;;;;;;5117303;28;20118;-68
2022/05/14 13:26:46;;;;;;;8.75;3.78;;;21.50;83.30;;;;;;5117731;28;20379;-68
2022/05/14 13:29:36;;;;;;;7.28;3.33;;;21.70;82.00;;;;;;5117614;28;20494;-68